Metar z połowy godziny Komunikat METAR ze strony awiacja.imgw.pl Metar G00 EPPO METAR EPPO 230630Z 29012KT 9999 BKN011 06/03 Q1021 =